createdAt,value
2022-07-30T00:00:24.914Z,993.10
2022-07-30T00:01:23.897Z,993.10
2022-07-30T00:02:23.876Z,993.12
2022-07-30T00:03:24.671Z,993.13
2022-07-30T00:04:23.841Z,993.07
2022-07-30T00:05:23.853Z,993.06
2022-07-30T00:06:23.896Z,993.11
2022-07-30T00:07:23.823Z,993.07
2022-07-30T00:08:23.814Z,993.06
2022-07-30T00:09:23.828Z,993.07
2022-07-30T00:10:23.957Z,993.03
2022-07-30T00:11:27.642Z,993.02
2022-07-30T00:12:23.803Z,993.05
2022-07-30T00:13:23.824Z,993.03
2022-07-30T00:14:23.772Z,993.03
2022-07-30T00:15:23.782Z,993.05
2022-07-30T00:16:23.839Z,993.08
2022-07-30T00:17:23.804Z,993.04
2022-07-30T00:18:23.734Z,993.02
2022-07-30T00:19:23.748Z,992.96
2022-07-30T00:20:23.741Z,992.90
2022-07-30T00:21:36.320Z,992.88
2022-07-30T00:22:24.756Z,992.88
2022-07-30T00:23:23.729Z,992.91
2022-07-30T00:24:23.701Z,992.85
2022-07-30T00:25:23.706Z,992.83
2022-07-30T00:26:23.713Z,992.80
2022-07-30T00:27:23.696Z,992.82
2022-07-30T00:28:23.709Z,992.80
2022-07-30T00:29:23.667Z,992.84
2022-07-30T00:30:23.727Z,992.82
2022-07-30T00:31:23.650Z,992.82
2022-07-30T00:32:23.647Z,992.82
2022-07-30T00:33:23.700Z,992.83
2022-07-30T00:34:23.639Z,992.85
2022-07-30T00:35:23.640Z,992.87
2022-07-30T00:36:23.658Z,992.79
2022-07-30T00:37:23.623Z,992.79
2022-07-30T00:38:23.635Z,992.82
2022-07-30T00:39:23.603Z,992.77
2022-07-30T00:40:23.590Z,992.74
2022-07-30T00:41:23.597Z,992.76
2022-07-30T00:42:23.605Z,992.75
2022-07-30T00:43:23.578Z,992.77
2022-07-30T00:44:23.606Z,992.80
2022-07-30T00:45:23.564Z,992.79
2022-07-30T00:46:23.572Z,992.79
2022-07-30T00:47:23.544Z,992.77
2022-07-30T00:48:23.554Z,992.77
2022-07-30T00:49:23.608Z,992.74
2022-07-30T00:50:23.559Z,992.75
2022-07-30T00:51:23.529Z,992.66
2022-07-30T00:52:23.513Z,992.74
2022-07-30T00:53:23.512Z,992.72
2022-07-30T00:54:23.502Z,992.71
2022-07-30T00:55:23.534Z,992.73
2022-07-30T00:56:23.485Z,992.74
2022-07-30T00:57:23.476Z,992.69
2022-07-30T00:58:23.474Z,992.75
2022-07-30T00:59:23.457Z,992.79
2022-07-30T01:00:23.533Z,992.74
2022-07-30T01:01:23.524Z,992.73
2022-07-30T01:02:23.557Z,992.71
2022-07-30T01:03:23.433Z,992.76
2022-07-30T01:04:23.432Z,992.76
2022-07-30T01:05:23.512Z,992.70
2022-07-30T01:06:23.408Z,992.71
2022-07-30T01:07:23.989Z,992.72
2022-07-30T01:08:23.389Z,992.64
2022-07-30T01:09:23.414Z,992.67
2022-07-30T01:10:23.381Z,992.61
2022-07-30T01:11:23.446Z,992.63
2022-07-30T01:12:23.372Z,992.71
2022-07-30T01:13:23.370Z,992.61
2022-07-30T01:14:23.359Z,992.61
2022-07-30T01:15:23.351Z,992.59
2022-07-30T01:16:23.431Z,992.57
2022-07-30T01:17:23.345Z,992.61
2022-07-30T01:18:23.334Z,992.61
2022-07-30T01:19:23.338Z,992.60
2022-07-30T01:20:23.313Z,992.62
2022-07-30T01:21:23.343Z,992.60
2022-07-30T01:22:23.336Z,992.63
2022-07-30T01:23:23.286Z,992.67
2022-07-30T01:24:23.287Z,992.70
2022-07-30T01:25:23.268Z,992.73
2022-07-30T01:26:23.270Z,992.72
2022-07-30T01:27:23.281Z,992.72
2022-07-30T01:28:23.265Z,992.69
2022-07-30T01:29:23.265Z,992.60
2022-07-30T01:30:23.239Z,992.63
2022-07-30T01:31:23.269Z,992.59
2022-07-30T01:32:24.262Z,992.64
2022-07-30T01:33:23.212Z,992.63
2022-07-30T01:34:23.232Z,992.52
2022-07-30T01:35:23.207Z,992.56
2022-07-30T01:36:23.205Z,992.59
2022-07-30T01:37:23.229Z,992.59
2022-07-30T01:38:23.179Z,992.62
2022-07-30T01:39:23.184Z,992.62
2022-07-30T01:40:24.175Z,992.63
2022-07-30T01:41:23.165Z,992.65
2022-07-30T01:42:23.151Z,992.62
2022-07-30T01:43:23.176Z,992.64
2022-07-30T01:44:23.906Z,992.64
2022-07-30T01:45:23.188Z,992.67
2022-07-30T01:46:23.190Z,992.65
2022-07-30T01:47:23.116Z,992.67
2022-07-30T01:48:23.153Z,992.64
2022-07-30T01:49:23.164Z,992.70
2022-07-30T01:50:23.113Z,992.59
2022-07-30T01:51:23.101Z,992.68
2022-07-30T01:52:23.083Z,992.63
2022-07-30T01:53:23.070Z,992.69
2022-07-30T01:54:23.087Z,992.61
2022-07-30T01:55:23.058Z,992.66
2022-07-30T01:56:24.645Z,992.74
2022-07-30T01:57:23.046Z,992.64
2022-07-30T01:58:23.039Z,992.69
2022-07-30T01:59:23.084Z,992.72
2022-07-30T02:00:23.027Z,992.71
2022-07-30T02:01:23.089Z,992.66
2022-07-30T02:02:23.010Z,992.71
2022-07-30T02:03:23.055Z,992.71
2022-07-30T02:04:23.018Z,992.71
2022-07-30T02:05:22.992Z,992.72
2022-07-30T02:06:22.977Z,992.70
2022-07-30T02:07:23.023Z,992.75
2022-07-30T02:08:22.973Z,992.74
2022-07-30T02:09:22.971Z,992.73
2022-07-30T02:10:23.050Z,992.73
2022-07-30T02:11:22.965Z,992.77
2022-07-30T02:12:22.926Z,992.80
2022-07-30T02:13:22.927Z,992.73
2022-07-30T02:14:22.917Z,992.78
2022-07-30T02:15:22.957Z,992.73
2022-07-30T02:16:22.959Z,992.79
2022-07-30T02:17:22.906Z,992.80
2022-07-30T02:18:24.612Z,992.73
2022-07-30T02:19:22.906Z,992.74
2022-07-30T02:20:25.048Z,992.73
2022-07-30T02:21:23.908Z,992.78
2022-07-30T02:22:23.878Z,992.75
2022-07-30T02:23:22.848Z,992.79
2022-07-30T02:24:22.872Z,992.76
2022-07-30T02:25:22.848Z,992.80
2022-07-30T02:26:22.877Z,992.83
2022-07-30T02:27:22.826Z,992.76
2022-07-30T02:28:22.835Z,992.80
2022-07-30T02:29:22.973Z,992.83
2022-07-30T02:30:22.822Z,992.79
2022-07-30T02:31:22.857Z,992.81
2022-07-30T02:32:22.826Z,992.89
2022-07-30T02:33:22.805Z,992.83
2022-07-30T02:34:22.795Z,992.83
2022-07-30T02:35:22.773Z,992.85
2022-07-30T02:36:22.783Z,992.91
2022-07-30T02:37:38.548Z,992.92
2022-07-30T02:38:23.754Z,992.92
2022-07-30T02:39:22.756Z,992.93
2022-07-30T02:40:22.761Z,992.92
2022-07-30T02:41:22.776Z,992.98
2022-07-30T02:42:22.788Z,992.94
2022-07-30T02:43:22.733Z,992.90
2022-07-30T02:44:22.719Z,992.92
2022-07-30T02:45:22.718Z,992.97
2022-07-30T02:46:22.726Z,993.00
2022-07-30T02:47:22.671Z,992.98
2022-07-30T02:48:34.193Z,992.95
2022-07-30T02:49:23.684Z,992.99
2022-07-30T02:50:22.683Z,992.97
2022-07-30T02:51:22.682Z,993.03
2022-07-30T02:52:22.665Z,992.98
2022-07-30T02:53:22.708Z,992.99
2022-07-30T02:54:22.646Z,993.02
2022-07-30T02:55:22.628Z,993.08
2022-07-30T02:56:22.626Z,993.09
2022-07-30T02:57:22.622Z,993.15
2022-07-30T02:58:22.643Z,993.13
2022-07-30T02:59:22.633Z,993.13
2022-07-30T03:00:22.615Z,993.15
2022-07-30T03:01:22.591Z,993.12
2022-07-30T03:02:29.154Z,993.08
2022-07-30T03:03:23.580Z,993.09
2022-07-30T03:04:22.612Z,993.07
2022-07-30T03:05:22.565Z,993.09
2022-07-30T03:06:22.563Z,993.10
2022-07-30T03:07:22.549Z,993.10
2022-07-30T03:08:22.533Z,993.08
2022-07-30T03:09:22.570Z,993.02
2022-07-30T03:10:22.518Z,993.08
2022-07-30T03:11:22.522Z,993.09
2022-07-30T03:12:22.539Z,993.07
2022-07-30T03:13:22.510Z,993.10
2022-07-30T03:14:22.516Z,993.05
2022-07-30T03:15:22.583Z,993.02
2022-07-30T03:16:22.564Z,993.15
2022-07-30T03:17:22.487Z,993.09
2022-07-30T03:18:22.474Z,993.14
2022-07-30T03:19:22.468Z,993.13
2022-07-30T03:20:22.513Z,993.16
2022-07-30T03:21:22.462Z,993.12
2022-07-30T03:22:22.460Z,993.13
2022-07-30T03:23:22.430Z,993.13
2022-07-30T03:24:22.439Z,993.16
2022-07-30T03:25:22.415Z,993.09
2022-07-30T03:26:22.442Z,993.16
2022-07-30T03:27:22.402Z,993.14
2022-07-30T03:28:22.398Z,993.08
2022-07-30T03:29:22.399Z,993.15
2022-07-30T03:30:22.392Z,993.10
2022-07-30T03:31:22.530Z,993.12
2022-07-30T03:32:26.060Z,993.12
2022-07-30T03:33:22.372Z,993.09
2022-07-30T03:34:22.369Z,993.16
2022-07-30T03:35:22.358Z,993.11
2022-07-30T03:36:23.279Z,993.12
2022-07-30T03:37:22.334Z,993.11
2022-07-30T03:38:22.365Z,993.16
2022-07-30T03:39:22.324Z,993.11
2022-07-30T03:40:22.334Z,993.08
2022-07-30T03:41:22.328Z,993.11
2022-07-30T03:42:22.441Z,993.17
2022-07-30T03:43:33.114Z,993.15
2022-07-30T03:44:23.287Z,993.14
2022-07-30T03:45:22.284Z,993.13
2022-07-30T03:46:22.365Z,993.09
2022-07-30T03:47:22.303Z,993.10
2022-07-30T03:48:22.255Z,993.17
2022-07-30T03:49:22.355Z,993.09
2022-07-30T03:50:22.293Z,993.14
2022-07-30T03:51:22.275Z,993.21
2022-07-30T03:52:22.270Z,993.19
2022-07-30T03:53:22.251Z,993.22
2022-07-30T03:54:22.251Z,993.20
2022-07-30T03:55:22.201Z,993.20
2022-07-30T03:56:22.232Z,993.23
2022-07-30T03:57:22.212Z,993.24
2022-07-30T03:58:22.255Z,993.25
2022-07-30T03:59:22.173Z,993.27
2022-07-30T04:00:22.177Z,993.22
2022-07-30T04:01:22.220Z,993.20
2022-07-30T04:02:22.207Z,993.31
2022-07-30T04:03:22.254Z,993.26
2022-07-30T04:04:22.188Z,993.31
2022-07-30T04:05:22.148Z,993.22
2022-07-30T04:06:22.236Z,993.25
2022-07-30T04:07:22.122Z,993.22
2022-07-30T04:08:22.153Z,993.29
2022-07-30T04:09:22.120Z,993.26
2022-07-30T04:10:22.101Z,993.26
2022-07-30T04:11:41.468Z,993.29
2022-07-30T04:12:23.089Z,993.27
2022-07-30T04:13:22.101Z,993.29
2022-07-30T04:14:22.080Z,993.31
2022-07-30T04:16:05.740Z,993.28
2022-07-30T04:16:41.393Z,993.24
2022-07-30T04:17:23.160Z,993.29
2022-07-30T04:18:22.084Z,993.28
2022-07-30T04:19:22.056Z,993.24
2022-07-30T04:20:22.036Z,993.28
2022-07-30T04:21:22.027Z,993.29
2022-07-30T04:22:22.010Z,993.23
2022-07-30T04:23:22.032Z,993.27
2022-07-30T04:24:22.025Z,993.26
2022-07-30T04:25:24.707Z,993.26
2022-07-30T04:26:21.990Z,993.31
2022-07-30T04:27:21.993Z,993.35
2022-07-30T04:28:21.990Z,993.39
2022-07-30T04:29:24.716Z,993.39
2022-07-30T04:30:22.952Z,993.46
2022-07-30T04:31:22.724Z,993.41
2022-07-30T04:32:21.935Z,993.40
2022-07-30T04:33:21.984Z,993.44
2022-07-30T04:34:21.931Z,993.46
2022-07-30T04:35:50.232Z,993.50
2022-07-30T04:36:22.938Z,993.51
2022-07-30T04:37:21.915Z,993.52
2022-07-30T04:38:21.904Z,993.51
2022-07-30T04:39:21.913Z,993.46
2022-07-30T04:40:21.886Z,993.48
2022-07-30T04:41:21.907Z,993.57
2022-07-30T04:42:21.940Z,993.56
2022-07-30T04:43:21.872Z,993.53
2022-07-30T04:44:21.884Z,993.57
2022-07-30T04:45:21.857Z,993.59
2022-07-30T04:46:24.787Z,993.60
2022-07-30T04:47:21.831Z,993.60
2022-07-30T04:48:21.868Z,993.59
2022-07-30T04:49:21.993Z,993.64
2022-07-30T04:50:21.813Z,993.67
2022-07-30T04:51:21.830Z,993.73
2022-07-30T04:52:21.800Z,993.72
2022-07-30T04:53:21.798Z,993.67
2022-07-30T04:54:21.814Z,993.71
2022-07-30T04:55:21.785Z,993.69
2022-07-30T04:56:21.775Z,993.69
2022-07-30T04:57:21.762Z,993.80
2022-07-30T04:58:21.765Z,993.78
2022-07-30T04:59:21.783Z,993.75
2022-07-30T05:00:21.785Z,993.69
2022-07-30T05:01:21.773Z,993.72
2022-07-30T05:02:21.733Z,993.64
2022-07-30T05:03:21.712Z,993.75
2022-07-30T05:04:21.789Z,993.77
2022-07-30T05:05:21.749Z,993.69
2022-07-30T05:06:21.708Z,993.73
2022-07-30T05:07:22.257Z,993.74
2022-07-30T05:08:21.686Z,993.73
2022-07-30T05:09:21.700Z,993.76
2022-07-30T05:10:21.693Z,993.79
2022-07-30T05:11:21.680Z,993.74
2022-07-30T05:12:21.657Z,993.77
2022-07-30T05:13:22.445Z,993.88
2022-07-30T05:14:22.650Z,993.81
2022-07-30T05:15:21.637Z,993.80
2022-07-30T05:16:21.685Z,993.78
2022-07-30T05:17:21.623Z,993.85
2022-07-30T05:18:21.624Z,993.83
2022-07-30T05:19:21.639Z,993.83
2022-07-30T05:20:21.627Z,993.84
2022-07-30T05:21:21.676Z,993.75
2022-07-30T05:22:21.593Z,993.85
2022-07-30T05:23:21.589Z,993.86
2022-07-30T05:24:21.572Z,993.80
2022-07-30T05:25:21.587Z,993.79
2022-07-30T05:26:21.570Z,993.82
2022-07-30T05:27:21.562Z,993.78
2022-07-30T05:28:21.542Z,993.84
2022-07-30T05:29:21.565Z,993.82
2022-07-30T05:30:27.397Z,993.83
2022-07-30T05:31:22.620Z,993.83
2022-07-30T05:32:21.521Z,993.76
2022-07-30T05:33:21.510Z,993.81
2022-07-30T05:34:22.492Z,993.80
2022-07-30T05:35:21.523Z,993.81
2022-07-30T05:36:21.499Z,993.79
2022-07-30T05:37:21.482Z,993.83
2022-07-30T05:38:21.487Z,993.87
2022-07-30T05:39:21.473Z,993.85
2022-07-30T05:40:21.453Z,993.87
2022-07-30T05:41:31.691Z,993.88
2022-07-30T05:42:22.433Z,993.88
2022-07-30T05:43:21.436Z,993.85
2022-07-30T05:44:24.039Z,993.87
2022-07-30T05:45:22.421Z,993.90
2022-07-30T05:46:21.468Z,993.90
2022-07-30T05:47:22.730Z,993.91
2022-07-30T05:48:21.400Z,993.89
2022-07-30T05:49:21.429Z,993.78
2022-07-30T05:50:21.376Z,993.79
2022-07-30T05:51:21.412Z,993.78
2022-07-30T05:52:21.369Z,993.83
2022-07-30T05:53:21.355Z,993.81
2022-07-30T05:54:21.357Z,993.80
2022-07-30T05:55:21.348Z,993.87
2022-07-30T05:56:21.362Z,993.81
2022-07-30T05:57:21.333Z,993.86
2022-07-30T05:58:21.309Z,993.82
2022-07-30T05:59:21.324Z,993.92
2022-07-30T06:00:21.306Z,993.92
2022-07-30T06:01:21.386Z,993.83
2022-07-30T06:02:24.366Z,993.86
2022-07-30T06:03:21.291Z,993.87
2022-07-30T06:04:21.305Z,993.92
2022-07-30T06:05:21.261Z,993.88
2022-07-30T06:06:23.220Z,993.92
2022-07-30T06:07:21.257Z,993.88
2022-07-30T06:08:21.275Z,993.89
2022-07-30T06:09:22.536Z,993.88
2022-07-30T06:10:22.226Z,993.89
2022-07-30T06:11:21.228Z,993.91
2022-07-30T06:12:21.253Z,993.88
2022-07-30T06:13:21.223Z,993.91
2022-07-30T06:14:21.204Z,993.93
2022-07-30T06:15:25.912Z,993.88
2022-07-30T06:16:23.253Z,993.86
2022-07-30T06:17:21.202Z,993.93
2022-07-30T06:18:23.447Z,993.92
2022-07-30T06:19:21.176Z,993.90
2022-07-30T06:20:21.157Z,993.84
2022-07-30T06:21:21.156Z,993.90
2022-07-30T06:22:25.833Z,993.89
2022-07-30T06:23:23.139Z,993.95
2022-07-30T06:24:21.136Z,993.91
2022-07-30T06:25:21.113Z,993.94
2022-07-30T06:26:21.133Z,993.95
2022-07-30T06:27:21.135Z,993.97
2022-07-30T06:28:37.458Z,993.97
2022-07-30T06:29:23.081Z,994.00
2022-07-30T06:30:21.081Z,993.96
2022-07-30T06:31:22.285Z,993.91
2022-07-30T06:32:21.139Z,993.94
2022-07-30T06:33:21.215Z,994.00
2022-07-30T06:34:21.060Z,993.99
2022-07-30T06:35:21.038Z,993.99
2022-07-30T06:36:21.044Z,994.02
2022-07-30T06:37:21.038Z,994.07
2022-07-30T06:38:22.065Z,993.99
2022-07-30T06:39:57.072Z,994.02
2022-07-30T06:40:22.019Z,994.07
2022-07-30T06:41:21.008Z,994.15
2022-07-30T06:42:21.006Z,994.14
2022-07-30T06:43:21.027Z,994.08
2022-07-30T06:44:20.988Z,994.11
2022-07-30T06:45:20.974Z,994.16
2022-07-30T06:46:20.993Z,994.15
2022-07-30T06:47:20.956Z,994.18
2022-07-30T06:48:20.968Z,994.10
2022-07-30T06:49:21.175Z,994.16
2022-07-30T06:50:20.997Z,994.17
2022-07-30T06:51:20.929Z,994.15
2022-07-30T06:52:20.955Z,994.17
2022-07-30T06:53:20.963Z,994.16
2022-07-30T06:54:20.991Z,994.17
2022-07-30T06:55:20.932Z,994.16
2022-07-30T06:56:20.975Z,994.14
2022-07-30T06:57:20.870Z,994.11
2022-07-30T06:58:25.363Z,994.17
2022-07-30T06:59:20.911Z,994.21
2022-07-30T07:00:21.851Z,994.13
2022-07-30T07:01:20.887Z,994.12
2022-07-30T07:02:20.836Z,994.15
2022-07-30T07:03:20.860Z,994.07
2022-07-30T07:04:20.895Z,994.11
2022-07-30T07:05:20.854Z,994.09
2022-07-30T07:06:20.849Z,994.15
2022-07-30T07:07:40.335Z,994.12
2022-07-30T07:08:25.294Z,994.15
2022-07-30T07:09:20.798Z,994.10
2022-07-30T07:10:20.829Z,994.15
2022-07-30T07:11:20.782Z,994.13
2022-07-30T07:12:20.762Z,994.15
2022-07-30T07:13:20.760Z,994.13
2022-07-30T07:14:20.764Z,994.11
2022-07-30T07:15:22.438Z,994.12
2022-07-30T07:16:21.954Z,994.13
2022-07-30T07:17:20.761Z,994.20
2022-07-30T07:18:20.719Z,994.19
2022-07-30T07:20:01.385Z,994.19
2022-07-30T07:20:21.719Z,994.16
2022-07-30T07:21:20.769Z,994.11
2022-07-30T07:22:20.702Z,994.14
2022-07-30T07:23:20.727Z,994.11
2022-07-30T07:24:20.683Z,994.13
2022-07-30T07:25:20.665Z,994.10
2022-07-30T07:26:20.753Z,994.12
2022-07-30T07:27:20.661Z,994.18
2022-07-30T07:28:20.660Z,994.17
2022-07-30T07:29:20.656Z,994.16
2022-07-30T07:30:20.640Z,994.21
2022-07-30T07:32:06.152Z,994.18
2022-07-30T07:32:21.672Z,994.19
2022-07-30T07:33:20.624Z,994.20
2022-07-30T07:34:20.595Z,994.11
2022-07-30T07:35:20.590Z,994.17
2022-07-30T07:36:20.592Z,994.17
2022-07-30T07:37:20.617Z,994.15
2022-07-30T07:38:20.575Z,994.14
2022-07-30T07:39:20.587Z,994.14
2022-07-30T07:40:20.597Z,994.08
2022-07-30T07:41:20.619Z,994.09
2022-07-30T07:42:20.550Z,994.07
2022-07-30T07:43:20.580Z,994.06
2022-07-30T07:44:21.076Z,994.05
2022-07-30T07:45:20.525Z,994.07
2022-07-30T07:46:33.218Z,994.06
2022-07-30T07:47:21.522Z,994.06
2022-07-30T07:48:20.559Z,994.10
2022-07-30T07:49:20.562Z,994.08
2022-07-30T07:50:20.505Z,994.16
2022-07-30T07:51:47.012Z,994.06
2022-07-30T07:52:21.476Z,994.07
2022-07-30T07:53:20.498Z,994.09
2022-07-30T07:54:22.583Z,994.09
2022-07-30T07:55:21.454Z,994.13
2022-07-30T07:56:20.443Z,994.05
2022-07-30T07:57:20.434Z,994.14
2022-07-30T07:58:26.242Z,994.11
2022-07-30T07:59:21.473Z,994.04
2022-07-30T08:00:20.415Z,994.11
2022-07-30T08:01:20.464Z,994.12
2022-07-30T08:02:20.451Z,994.13
2022-07-30T08:03:20.401Z,994.13
2022-07-30T08:04:20.405Z,994.18
2022-07-30T08:05:20.374Z,994.10
2022-07-30T08:06:20.580Z,994.12
2022-07-30T08:07:20.366Z,994.13
2022-07-30T08:08:20.388Z,994.11
2022-07-30T08:09:20.357Z,994.09
2022-07-30T08:10:20.353Z,994.12
2022-07-30T08:11:20.388Z,994.08
2022-07-30T08:12:20.334Z,994.08
2022-07-30T08:13:51.329Z,994.05
2022-07-30T08:14:21.372Z,994.03
2022-07-30T08:15:22.093Z,994.04
2022-07-30T08:16:21.387Z,993.97
2022-07-30T08:17:20.328Z,994.02
2022-07-30T08:18:20.314Z,993.97
2022-07-30T08:19:20.287Z,993.93
2022-07-30T08:20:20.293Z,993.97
2022-07-30T08:21:20.328Z,993.94
2022-07-30T08:22:20.308Z,993.95
2022-07-30T08:23:20.262Z,993.99
2022-07-30T08:24:20.254Z,994.00
2022-07-30T08:25:22.261Z,994.00
2022-07-30T08:26:20.236Z,994.06
2022-07-30T08:27:20.291Z,994.00
2022-07-30T08:28:35.354Z,994.00
2022-07-30T08:29:21.224Z,993.94
2022-07-30T08:30:20.210Z,994.04
2022-07-30T08:31:20.214Z,994.02
2022-07-30T08:32:20.220Z,993.96
2022-07-30T08:33:20.187Z,994.01
2022-07-30T08:34:20.184Z,994.03
2022-07-30T08:35:21.354Z,994.00
2022-07-30T08:36:24.146Z,994.01
2022-07-30T08:37:21.184Z,993.97
2022-07-30T08:38:20.154Z,993.94
2022-07-30T08:39:20.148Z,993.95
2022-07-30T08:40:20.283Z,993.96
2022-07-30T08:41:20.124Z,993.98
2022-07-30T08:42:20.196Z,993.95
2022-07-30T08:43:20.121Z,993.93
2022-07-30T08:44:20.104Z,993.93
2022-07-30T08:45:20.090Z,993.89
2022-07-30T08:46:21.134Z,993.92
2022-07-30T08:47:20.097Z,993.92
2022-07-30T08:48:20.122Z,993.90
2022-07-30T08:49:20.109Z,993.90
2022-07-30T08:50:20.220Z,993.90
2022-07-30T08:51:20.060Z,993.88
2022-07-30T08:52:20.063Z,993.90
2022-07-30T08:53:20.065Z,993.89
2022-07-30T08:54:20.051Z,993.90
2022-07-30T08:55:20.036Z,993.91
2022-07-30T08:56:20.023Z,993.90
2022-07-30T08:57:21.014Z,993.92
2022-07-30T08:58:20.027Z,993.88
2022-07-30T08:59:20.024Z,993.83
2022-07-30T09:00:20.096Z,993.90
2022-07-30T09:01:19.988Z,993.89
2022-07-30T09:02:27.826Z,993.92
2022-07-30T09:03:21.000Z,993.98
2022-07-30T09:04:19.969Z,993.95
2022-07-30T09:05:19.966Z,993.94
2022-07-30T09:06:19.951Z,993.92
2022-07-30T09:07:19.942Z,993.95
2022-07-30T09:08:20.035Z,993.94
2022-07-30T09:09:19.930Z,993.94
2022-07-30T09:10:19.919Z,993.92
2022-07-30T09:11:19.919Z,993.89
2022-07-30T09:12:19.909Z,993.91
2022-07-30T09:13:19.979Z,993.89
2022-07-30T09:14:19.911Z,993.93
2022-07-30T09:15:19.884Z,993.87
2022-07-30T09:16:19.885Z,993.90
2022-07-30T09:17:19.879Z,993.91
2022-07-30T09:18:19.928Z,993.88
2022-07-30T09:19:19.862Z,993.95
2022-07-30T09:20:19.853Z,994.00
2022-07-30T09:21:19.857Z,994.03
2022-07-30T09:22:19.838Z,993.98
2022-07-30T09:23:19.828Z,994.03
2022-07-30T09:24:19.918Z,994.00
2022-07-30T09:25:19.816Z,993.98
2022-07-30T09:26:19.821Z,994.01
2022-07-30T09:27:19.799Z,994.00
2022-07-30T09:28:19.796Z,994.04
2022-07-30T09:29:19.809Z,994.02
2022-07-30T09:30:19.793Z,994.05
2022-07-30T09:31:19.820Z,994.04
2022-07-30T09:32:19.774Z,994.04
2022-07-30T09:33:19.771Z,994.02
2022-07-30T09:34:19.782Z,994.08
2022-07-30T09:35:19.745Z,994.02
2022-07-30T09:36:19.734Z,994.10
2022-07-30T09:37:19.732Z,994.05
2022-07-30T09:38:19.733Z,993.99
2022-07-30T09:39:19.831Z,993.99
2022-07-30T09:40:19.711Z,993.96
2022-07-30T09:41:37.594Z,994.02
2022-07-30T09:42:22.182Z,993.99
2022-07-30T09:43:23.316Z,993.95
2022-07-30T09:44:20.780Z,993.97
2022-07-30T09:45:19.681Z,994.04
2022-07-30T09:46:19.671Z,993.97
2022-07-30T09:47:19.785Z,994.04
2022-07-30T09:48:19.688Z,993.95
2022-07-30T09:49:19.732Z,993.96
2022-07-30T09:50:29.828Z,994.03
2022-07-30T09:51:49.235Z,993.99
2022-07-30T09:52:20.632Z,993.98
2022-07-30T09:53:20.618Z,993.96
2022-07-30T09:54:19.609Z,993.98
2022-07-30T09:55:19.711Z,994.01
2022-07-30T09:56:19.601Z,993.99
2022-07-30T09:57:26.576Z,993.98
2022-07-30T09:58:27.004Z,994.02
2022-07-30T09:59:19.728Z,994.00
2022-07-30T10:00:19.591Z,994.03
2022-07-30T10:01:20.560Z,993.99
2022-07-30T10:02:19.556Z,993.95
2022-07-30T10:03:21.993Z,993.96
2022-07-30T10:04:20.549Z,993.92
2022-07-30T10:05:20.426Z,994.03
2022-07-30T10:06:19.543Z,994.01
2022-07-30T10:07:25.243Z,993.92
2022-07-30T10:08:20.532Z,993.94
2022-07-30T10:09:19.513Z,993.91
2022-07-30T10:10:19.526Z,993.91
2022-07-30T10:11:22.527Z,993.90
2022-07-30T10:12:19.583Z,994.02
2022-07-30T10:13:19.690Z,993.95
2022-07-30T10:14:24.056Z,993.94
2022-07-30T10:15:20.511Z,993.94
2022-07-30T10:16:19.463Z,993.90
2022-07-30T10:17:19.453Z,993.96
2022-07-30T10:18:19.485Z,993.92
2022-07-30T10:19:23.488Z,993.92
2022-07-30T10:20:20.458Z,993.95
2022-07-30T10:21:19.423Z,993.89
2022-07-30T10:22:19.420Z,993.92
2022-07-30T10:23:24.056Z,993.89
2022-07-30T10:24:27.637Z,993.91
2022-07-30T10:25:20.823Z,993.88
2022-07-30T10:26:19.385Z,993.86
2022-07-30T10:27:19.383Z,993.88
2022-07-30T10:28:19.375Z,993.87
2022-07-30T10:29:19.365Z,993.90
2022-07-30T10:30:19.542Z,993.89
2022-07-30T10:31:49.181Z,993.94
2022-07-30T10:32:20.386Z,993.86
2022-07-30T10:33:36.510Z,993.89
2022-07-30T10:34:23.558Z,993.86
2022-07-30T10:35:34.175Z,993.87
2022-07-30T10:36:20.348Z,993.83
2022-07-30T10:37:19.322Z,993.78
2022-07-30T10:38:19.309Z,993.82
2022-07-30T10:39:19.311Z,993.80
2022-07-30T10:40:19.291Z,993.82
2022-07-30T10:41:42.355Z,993.90
2022-07-30T10:42:20.282Z,993.76
2022-07-30T10:43:19.274Z,993.80
2022-07-30T10:44:19.578Z,993.81
2022-07-30T10:45:19.258Z,993.81
2022-07-30T10:46:22.085Z,993.75
2022-07-30T10:47:19.238Z,993.78
2022-07-30T10:48:19.242Z,993.76
2022-07-30T10:49:19.588Z,993.82
2022-07-30T10:50:22.054Z,993.84
2022-07-30T10:51:25.471Z,993.80
2022-07-30T10:52:20.203Z,993.80
2022-07-30T10:53:19.202Z,993.82
2022-07-30T10:54:19.279Z,993.76
2022-07-30T10:55:19.188Z,993.83
2022-07-30T10:56:25.531Z,993.86
2022-07-30T10:57:31.673Z,993.82
2022-07-30T10:58:23.013Z,993.77
2022-07-30T10:59:19.161Z,993.83
2022-07-30T11:00:19.149Z,993.82
2022-07-30T11:01:19.152Z,993.84
2022-07-30T11:02:19.723Z,993.84
2022-07-30T11:03:19.130Z,993.78
2022-07-30T11:04:20.542Z,993.72
2022-07-30T11:05:27.152Z,993.78
2022-07-30T11:06:24.218Z,993.83
2022-07-30T11:07:19.123Z,993.86
2022-07-30T11:08:19.092Z,993.80
2022-07-30T11:09:21.198Z,993.75
2022-07-30T11:10:19.079Z,993.77
2022-07-30T11:11:20.247Z,993.79
2022-07-30T11:12:20.408Z,993.77
2022-07-30T11:13:20.056Z,993.77
2022-07-30T11:14:20.335Z,993.74
2022-07-30T11:15:19.731Z,993.82
2022-07-30T11:16:19.039Z,993.79
2022-07-30T11:17:19.057Z,993.79
2022-07-30T11:18:19.024Z,993.84
2022-07-30T11:19:53.321Z,993.87
2022-07-30T11:20:21.016Z,993.86
2022-07-30T11:21:21.472Z,993.79
2022-07-30T11:22:19.031Z,993.79
2022-07-30T11:23:19.034Z,993.81
2022-07-30T11:24:18.990Z,993.75
2022-07-30T11:25:19.008Z,993.72
2022-07-30T11:26:18.987Z,993.78
2022-07-30T11:27:20.067Z,993.69
2022-07-30T11:28:18.956Z,993.74
2022-07-30T11:29:18.949Z,993.77
2022-07-30T11:30:19.952Z,993.73
2022-07-30T11:31:18.931Z,993.78
2022-07-30T11:32:18.944Z,993.76
2022-07-30T11:33:18.950Z,993.79
2022-07-30T11:34:18.918Z,993.80
2022-07-30T11:35:18.920Z,993.79
2022-07-30T11:36:18.909Z,993.82
2022-07-30T11:37:31.721Z,993.77
2022-07-30T11:38:22.337Z,993.81
2022-07-30T11:39:18.894Z,993.78
2022-07-30T11:40:26.017Z,993.79
2022-07-30T11:41:19.885Z,993.79
2022-07-30T11:42:18.874Z,993.73
2022-07-30T11:43:18.964Z,993.73
2022-07-30T11:44:18.876Z,993.81
2022-07-30T11:45:18.848Z,993.81
2022-07-30T11:46:28.715Z,993.81
2022-07-30T11:47:19.832Z,993.76
2022-07-30T11:48:18.855Z,993.77
2022-07-30T11:49:18.835Z,993.77
2022-07-30T11:50:18.815Z,993.71
2022-07-30T11:51:18.809Z,993.76
2022-07-30T11:52:18.925Z,993.75
2022-07-30T11:53:18.865Z,993.72
2022-07-30T11:54:18.790Z,993.69
2022-07-30T11:55:18.775Z,993.77
2022-07-30T11:56:18.787Z,993.72
2022-07-30T11:57:18.781Z,993.71
2022-07-30T11:58:18.810Z,993.68
2022-07-30T11:59:18.746Z,993.69
2022-07-30T12:00:18.758Z,993.68
2022-07-30T12:01:18.754Z,993.69
2022-07-30T12:02:18.735Z,993.66
2022-07-30T12:03:18.726Z,993.64
2022-07-30T12:04:18.745Z,993.66
2022-07-30T12:05:18.720Z,993.75
2022-07-30T12:06:18.709Z,993.63
2022-07-30T12:07:18.694Z,993.69
2022-07-30T12:08:33.314Z,993.68
2022-07-30T12:09:19.704Z,993.69
2022-07-30T12:10:26.734Z,993.67
2022-07-30T12:11:18.669Z,993.64
2022-07-30T12:12:18.835Z,993.65
2022-07-30T12:13:18.661Z,993.67
2022-07-30T12:14:18.675Z,993.70
2022-07-30T12:15:18.660Z,993.62
2022-07-30T12:16:18.666Z,993.72
2022-07-30T12:17:18.662Z,993.67
2022-07-30T12:18:27.099Z,993.66
2022-07-30T12:19:20.681Z,993.76
2022-07-30T12:20:18.603Z,993.70
2022-07-30T12:21:18.606Z,993.72
2022-07-30T12:22:18.633Z,993.81
2022-07-30T12:23:21.898Z,993.82
2022-07-30T12:24:18.639Z,993.79
2022-07-30T12:25:18.565Z,993.73
2022-07-30T12:26:18.559Z,993.74
2022-07-30T12:27:18.562Z,993.77
2022-07-30T12:28:18.541Z,993.80